Time;durP1;ratioP1;P1;durP2;ratioP2;P2;SDS_P1;SDS_P2;PMS_P1;PMS_P2;Temp;Humidity;BMP_temperature;BMP_pressure;BME280_temperature;BME280_humidity;BME280_pressure;Samples;Min_cycle;Max_cycle;Signal;HPM_P1;HPM_P2
2021/01/02 00:02:36;;;;;;;40.10;17.85;;;;;;;4.49;62.47;94841.81;5032184;28;20216;-70
2021/01/02 00:05:05;;;;;;;39.47;18.58;;;;;;;4.38;63.15;94851.88;5031910;28;20184;-71
2021/01/02 00:07:49;;;;;;;37.28;16.73;;;;;;;4.58;61.23;94855.03;5032269;28;20432;-72
2021/01/02 00:10:15;;;;;;;47.05;18.40;;;;;;;4.34;61.47;94837.72;5031923;28;20210;-69
2021/01/02 00:13:15;;;;;;;41.38;17.38;;;;;;;4.30;62.87;94860.56;5031829;28;20259;-69
2021/01/02 00:16:08;;;;;;;39.78;18.20;;;;;;;4.42;61.70;94858.09;5032093;28;20212;-70
2021/01/02 00:18:41;;;;;;;37.40;17.70;;;;;;;4.21;62.34;94847.31;5032940;28;20215;-71
2021/01/02 00:21:25;;;;;;;45.55;18.38;;;;;;;4.36;63.22;94866.47;5032480;28;20689;-69
2021/01/02 00:24:17;;;;;;;35.72;17.67;;;;;;;4.43;61.89;94877.38;5034070;28;20298;-76
2021/01/02 00:26:44;;;;;;;36.70;19.55;;;;;;;4.06;62.56;94860.91;5032569;28;20178;-77
2021/01/02 00:29:22;;;;;;;45.10;19.23;;;;;;;4.21;62.79;94886.19;5033508;28;20219;-75
2021/01/02 00:32:05;;;;;;;39.05;17.95;;;;;;;4.32;62.41;94876.91;5032915;28;20180;-73
2021/01/02 00:34:34;;;;;;;42.17;18.88;;;;;;;4.18;62.73;94882.28;5031478;28;20621;-73
2021/01/02 00:37:10;;;;;;;33.25;17.50;;;;;;;4.18;63.02;94881.50;5033081;28;20203;-74
2021/01/02 00:40:10;;;;;;;36.88;18.25;;;;;;;4.12;63.33;94877.44;5026587;28;20180;-74
2021/01/02 00:42:37;;;;;;;34.88;16.95;;;;;;;4.21;62.97;94881.69;5045728;28;20179;-76
2021/01/02 00:45:04;;;;;;;39.03;18.42;;;;;;;4.08;63.38;94876.47;5048183;28;20177;-76
2021/01/02 00:47:40;;;;;;;41.85;19.13;;;;;;;4.09;63.08;94878.00;5033392;28;20305;-75
2021/01/02 00:50:07;;;;;;;43.90;18.80;;;;;;;4.05;63.56;94885.00;5029929;28;20211;-77
2021/01/02 00:52:44;;;;;;;40.83;19.17;;;;;;;4.12;62.78;94875.56;5032944;28;20255;-77
2021/01/02 00:55:25;;;;;;;39.20;17.42;;;;;;;3.67;63.83;94880.91;5032638;28;20255;-76
2021/01/02 00:58:03;;;;;;;43.20;18.33;;;;;;;3.81;64.05;94880.03;5032399;28;20255;-70
2021/01/02 01:00:36;;;;;;;37.33;18.73;;;;;;;3.91;63.55;94883.22;5031535;28;20267;-75
2021/01/02 01:03:06;;;;;;;45.85;19.80;;;;;;;3.83;63.58;94875.25;5030832;28;20570;-77
2021/01/02 01:05:37;;;;;;;41.28;19.15;;;;;;;3.85;63.85;94871.22;5032940;28;20180;-73
2021/01/02 01:08:04;;;;;;;42.72;18.25;;;;;;;3.76;64.58;94869.59;5033125;28;20176;-73
2021/01/02 01:10:34;;;;;;;43.08;20.33;;;;;;;3.75;64.04;94873.31;5031698;28;20687;-70
2021/01/02 01:13:01;;;;;;;40.40;18.83;;;;;;;3.95;64.10;94878.88;5031860;28;20222;-73
2021/01/02 01:15:26;;;;;;;39.80;19.63;;;;;;;3.59;64.24;94886.91;5031687;28;20180;-70
2021/01/02 01:18:06;;;;;;;43.00;17.80;;;;;;;3.38;65.63;94889.25;5032830;28;20200;-71
2021/01/02 01:20:31;;;;;;;49.17;20.35;;;;;;;3.65;64.82;94884.94;5031426;28;20168;-70
2021/01/02 01:23:35;;;;;;;45.93;18.83;;;;;;;3.16;65.71;94883.94;5031803;28;20176;-75
2021/01/02 01:26:01;;;;;;;41.60;17.10;;;;;;;3.19;65.82;94894.66;5032555;28;20188;-76
2021/01/02 01:28:26;;;;;;;35.37;16.20;;;;;;;3.15;66.15;94890.28;5032524;28;20224;-71
2021/01/02 01:30:53;;;;;;;43.37;17.10;;;;;;;3.45;64.30;94884.31;5015245;28;20585;-70
2021/01/02 01:33:29;;;;;;;42.47;18.13;;;;;;;3.53;64.43;94895.22;5032571;28;20185;-71
2021/01/02 01:36:02;;;;;;;42.55;17.73;;;;;;;3.43;64.18;94891.75;5031284;28;20218;-70
2021/01/02 01:38:28;;;;;;;39.33;17.35;;;;;;;3.59;64.80;94891.38;5032381;28;20181;-69
2021/01/02 01:41:18;;;;;;;41.75;17.83;;;;;;;3.71;63.85;94879.22;5032371;28;20173;-70
2021/01/02 01:43:54;;;;;;;34.20;15.63;;;;;;;3.83;63.91;94896.38;5031987;28;20212;-70
2021/01/02 01:46:20;;;;;;;39.05;17.25;;;;;;;3.72;63.37;94898.50;5031431;28;20182;-70
2021/01/02 01:48:53;;;;;;;35.80;17.40;;;;;;;3.72;64.28;94898.50;5014569;28;20176;-70
2021/01/02 01:51:33;;;;;;;35.20;17.08;;;;;;;3.72;63.65;94890.56;5030885;28;20719;-70
2021/01/02 01:54:00;;;;;;;39.95;17.77;;;;;;;3.43;65.04;94896.25;5031940;28;20164;-71
2021/01/02 01:56:37;;;;;;;30.17;16.02;;;;;;;3.17;66.11;94896.81;5031007;28;20180;-72
2021/01/02 01:59:15;;;;;;;33.97;16.85;;;;;;;3.38;66.14;94907.72;5032046;28;20663;-72
2021/01/02 02:01:43;;;;;;;36.28;15.82;;;;;;;3.30;65.04;94908.41;5032086;28;20180;-71
2021/01/02 02:04:12;;;;;;;35.38;16.02;;;;;;;2.82;65.51;94908.91;5015124;28;20238;-71
2021/01/02 02:06:37;;;;;;;30.58;14.50;;;;;;;2.58;66.25;94911.75;5032163;28;20172;-70
2021/01/02 02:09:03;;;;;;;31.00;14.20;;;;;;;2.94;66.00;94897.84;5032101;28;20179;-72
2021/01/02 02:11:35;;;;;;;23.70;12.40;;;;;;;2.86;65.64;94901.97;5032260;28;20258;-70
2021/01/02 02:14:17;;;;;;;26.98;13.15;;;;;;;3.20;64.73;94906.00;5031784;28;20230;-75
2021/01/02 02:16:45;;;;;;;25.10;12.48;;;;;;;3.11;64.94;94899.88;5030868;28;20180;-70
2021/01/02 02:19:27;;;;;;;26.50;13.13;;;;;;;3.14;65.17;94897.44;5032002;28;20180;-70
2021/01/02 02:21:55;;;;;;;30.23;12.90;;;;;;;3.43;64.11;94893.63;5030523;28;20180;-71
2021/01/02 02:24:21;;;;;;;31.55;13.73;;;;;;;3.41;63.85;94896.53;5014771;28;20177;-72
2021/01/02 02:26:46;;;;;;;30.93;13.60;;;;;;;3.15;64.46;94883.16;5030450;28;20548;-71
2021/01/02 02:29:12;;;;;;;26.93;13.87;;;;;;;3.35;64.53;94889.03;5014042;28;20295;-71
2021/01/02 02:31:46;;;;;;;28.70;14.13;;;;;;;3.24;64.55;94893.75;5031768;28;20218;-73
2021/01/02 02:34:12;;;;;;;31.08;14.07;;;;;;;2.99;65.72;94900.38;5031530;28;20250;-70
2021/01/02 02:36:38;;;;;;;25.02;13.30;;;;;;;3.07;65.90;94889.13;5030027;28;20666;-71
2021/01/02 02:39:09;;;;;;;27.20;12.20;;;;;;;3.34;64.77;94895.41;5031248;28;20184;-70
2021/01/02 02:41:48;;;;;;;28.98;12.52;;;;;;;3.28;65.51;94900.03;5031571;28;20176;-69
2021/01/02 02:44:24;;;;;;;28.58;12.77;;;;;;;3.40;64.70;94888.94;5031327;28;20666;-69
2021/01/02 02:46:52;;;;;;;25.55;13.00;;;;;;;3.49;63.85;94892.44;5030343;28;20187;-69
2021/01/02 02:49:24;;;;;;;32.78;12.82;;;;;;;3.49;63.64;94883.72;5013971;28;20176;-69
2021/01/02 02:52:15;;;;;;;28.00;12.85;;;;;;;3.49;64.40;94889.00;5031457;28;20168;-70
2021/01/02 02:54:40;;;;;;;30.83;13.90;;;;;;;3.50;63.92;94880.00;5030539;28;20278;-72
2021/01/02 02:57:06;;;;;;;28.27;13.77;;;;;;;3.53;64.23;94895.22;5029879;28;20199;-71
2021/01/02 02:59:32;;;;;;;26.57;13.73;;;;;;;3.10;65.22;94885.91;5030412;28;20172;-70
2021/01/02 03:01:57;;;;;;;31.53;15.37;;;;;;;3.29;65.89;94896.28;5031221;28;20670;-69
2021/01/02 03:04:23;;;;;;;26.33;13.93;;;;;;;3.41;65.01;94893.13;5031307;28;20173;-70
2021/01/02 03:06:48;;;;;;;30.77;14.50;;;;;;;3.37;66.30;94898.25;5030098;28;20207;-70
2021/01/02 03:09:14;;;;;;;28.73;14.37;;;;;;;3.42;65.92;94902.59;5029919;28;20192;-70
2021/01/02 03:11:42;;;;;;;34.77;16.13;;;;;;;3.58;64.81;94901.16;5031202;28;20708;-70
2021/01/02 03:14:08;;;;;;;32.25;14.85;;;;;;;3.46;65.05;94895.66;5031084;28;20180;-70
2021/01/02 03:16:33;;;;;;;34.67;15.87;;;;;;;3.01;66.22;94903.50;5029975;28;20184;-72
2021/01/02 03:19:03;;;;;;;31.77;15.70;;;;;;;2.62;67.48;94901.41;5031047;28;20185;-70
2021/01/02 03:21:29;;;;;;;32.47;14.35;;;;;;;2.34;nan;94901.38;5029967;28;20208;-72
2021/01/02 03:23:57;;;;;;;30.30;14.83;;;;;;;2.16;68.25;94897.00;5030969;28;20189;-71
2021/01/02 03:26:22;;;;;;;24.58;12.98;;;;;;;2.29;68.90;94901.47;5030255;28;20168;-74
2021/01/02 03:28:49;;;;;;;26.80;13.63;;;;;;;2.35;68.33;94905.56;5030827;28;20259;-70
2021/01/02 03:31:16;;;;;;;33.42;15.65;;;;;;;2.61;67.35;94915.66;5031195;28;20204;-71
2021/01/02 03:33:41;;;;;;;36.70;13.98;;;;;;;2.98;65.87;94906.75;5031158;28;20177;-69
2021/01/02 03:36:07;;;;;;;27.27;14.87;;;;;;;3.15;65.28;94909.53;5030841;28;20172;-70
2021/01/02 03:38:33;;;;;;;27.43;13.47;;;;;;;3.25;65.10;94919.06;5031069;28;20257;-70
2021/01/02 03:40:59;;;;;;;33.53;14.38;;;;;;;3.09;65.20;94916.00;5030837;28;20230;-69
2021/01/02 03:43:24;;;;;;;27.20;13.97;;;;;;;3.18;64.78;94923.97;5031173;28;20643;-70
2021/01/02 03:45:51;;;;;;;39.47;16.97;;;;;;;3.05;65.71;94916.88;5030842;28;20172;-69
2021/01/02 03:48:16;;;;;;;30.65;14.88;;;;;;;3.03;66.19;94908.47;5031143;28;20177;-70
2021/01/02 03:50:42;;;;;;;30.93;16.00;;;;;;;2.61;67.16;94915.66;5034317;28;20200;-69
2021/01/02 03:53:07;;;;;;;36.17;15.40;;;;;;;2.82;66.99;94922.09;5034357;28;20226;-69
2021/01/02 03:55:33;;;;;;;42.33;15.57;;;;;;;3.05;65.68;94922.16;5034326;28;20161;-69
2021/01/02 03:57:58;;;;;;;34.87;16.10;;;;;;;2.57;67.04;94926.00;5034456;28;20203;-70
2021/01/02 04:00:24;;;;;;;34.90;16.33;;;;;;;2.57;67.86;94928.63;5034455;28;20263;-70
2021/01/02 04:02:50;;;;;;;41.37;16.07;;;;;;;2.93;66.54;94912.13;5034189;28;20637;-69
2021/01/02 04:05:15;;;;;;;35.17;16.80;;;;;;;2.86;66.35;94932.81;5034257;28;20168;-69
2021/01/02 04:07:41;;;;;;;34.80;16.53;;;;;;;2.70;66.85;94927.09;5034072;28;20168;-69
2021/01/02 04:10:07;;;;;;;33.97;16.07;;;;;;;2.92;66.47;94927.16;5034419;28;20273;-69
2021/01/02 04:12:32;;;;;;;36.25;16.88;;;;;;;3.14;65.45;94920.38;5034170;28;20245;-70
2021/01/02 04:14:58;;;;;;;34.93;16.47;;;;;;;2.77;66.80;94930.09;5033202;28;20319;-70
2021/01/02 04:17:23;;;;;;;41.63;18.43;;;;;;;2.93;66.05;94930.59;5033833;28;20521;-70
2021/01/02 04:19:49;;;;;;;38.70;16.97;;;;;;;2.97;66.49;94917.56;5032791;28;20169;-70
2021/01/02 04:22:14;;;;;;;39.43;18.10;;;;;;;3.11;65.72;94928.88;5032521;28;20191;-68
2021/01/02 04:24:40;;;;;;;45.60;18.90;;;;;;;3.12;65.51;94923.31;5033731;28;20554;-69
2021/01/02 04:27:06;;;;;;;42.60;19.30;;;;;;;2.98;66.41;94932.34;5033907;28;20176;-69
2021/01/02 04:29:32;;;;;;;43.63;19.63;;;;;;;3.06;66.57;94935.06;5033391;28;20215;-71
2021/01/02 04:31:58;;;;;;;40.87;18.50;;;;;;;3.28;65.43;94936.19;5033039;28;20172;-70
2021/01/02 04:34:24;;;;;;;37.97;17.92;;;;;;;2.76;66.64;94936.47;5033612;28;20175;-70
2021/01/02 04:36:49;;;;;;;39.47;18.47;;;;;;;2.64;67.46;94941.44;5032483;28;20173;-73
2021/01/02 04:39:15;;;;;;;41.47;18.73;;;;;;;2.79;67.48;94949.03;5033327;28;20237;-73
2021/01/02 04:41:43;;;;;;;45.43;18.80;;;;;;;2.82;66.69;94948.47;5033634;28;20219;-69
2021/01/02 04:44:09;;;;;;;44.20;19.23;;;;;;;2.29;68.29;94943.63;5033344;28;20702;-69
2021/01/02 04:46:37;;;;;;;38.27;17.03;;;;;;;2.17;69.53;94948.59;5033563;28;20266;-68
2021/01/02 04:49:06;;;;;;;32.20;17.05;;;;;;;2.50;68.81;94951.19;5032208;28;20203;-71
2021/01/02 04:51:32;;;;;;;41.97;18.48;;;;;;;2.85;66.92;94958.41;5033316;28;20226;-70
2021/01/02 04:54:01;;;;;;;41.23;18.03;;;;;;;2.81;67.06;94959.31;5033318;28;20169;-70
2021/01/02 04:56:27;;;;;;;38.00;17.17;;;;;;;2.95;66.64;94969.84;5033183;28;20173;-71
2021/01/02 04:58:52;;;;;;;39.20;18.50;;;;;;;2.67;66.88;94959.28;5032332;28;20540;-68
2021/01/02 05:01:18;;;;;;;43.87;20.00;;;;;;;2.35;68.27;94971.47;5031614;28;20196;-69
2021/01/02 05:03:44;;;;;;;47.20;20.27;;;;;;;2.37;69.69;94968.56;5032064;28;20172;-69
2021/01/02 05:06:09;;;;;;;41.28;18.15;;;;;;;2.65;67.96;94972.78;5033008;28;20168;-69
2021/01/02 05:08:35;;;;;;;52.70;19.63;;;;;;;2.87;66.97;94977.38;5033140;28;20186;-69
2021/01/02 05:11:01;;;;;;;42.50;19.40;;;;;;;2.61;68.22;94984.19;5032746;28;20231;-71
2021/01/02 05:13:30;;;;;;;48.80;21.98;;;;;;;2.75;67.58;94978.91;5033011;28;20180;-70
2021/01/02 05:15:57;;;;;;;42.15;18.92;;;;;;;2.88;67.18;94984.22;5032765;28;20184;-69
2021/01/02 05:18:23;;;;;;;43.53;18.98;;;;;;;2.89;66.89;94987.63;5015339;28;20176;-69
2021/01/02 05:20:49;;;;;;;39.00;18.98;;;;;;;2.89;66.48;94980.50;5032799;28;20176;-71
2021/01/02 05:23:14;;;;;;;36.13;16.30;;;;;;;3.06;66.17;94985.16;5032980;28;20179;-69
2021/01/02 05:25:40;;;;;;;37.10;18.67;;;;;;;2.99;66.26;94982.16;5032682;28;20256;-70
2021/01/02 05:28:14;;;;;;;36.43;17.07;;;;;;;2.97;66.23;94988.78;5032519;28;20224;-70
2021/01/02 05:30:40;;;;;;;34.17;15.43;;;;;;;3.06;65.61;95000.22;5031525;28;20306;-69
2021/01/02 05:33:09;;;;;;;46.27;17.47;;;;;;;2.60;66.97;94995.81;5032548;28;20238;-70
2021/01/02 05:35:38;;;;;;;39.33;16.70;;;;;;;2.70;66.58;94997.50;5032675;28;20168;-70
2021/01/02 05:38:21;;;;;;;35.53;16.10;;;;;;;2.85;66.28;95005.09;5032377;28;20172;-71
2021/01/02 05:40:54;;;;;;;36.85;16.48;;;;;;;2.75;66.54;94995.53;5032488;28;20184;-70
2021/01/02 05:43:21;;;;;;;36.17;17.50;;;;;;;2.34;67.93;94998.88;5032621;28;20559;-70
2021/01/02 05:45:46;;;;;;;30.83;15.63;;;;;;;2.41;67.66;95006.41;5032584;28;20180;-69
2021/01/02 05:48:15;;;;;;;39.10;17.43;;;;;;;2.59;67.18;95005.59;5032202;28;20181;-73
2021/01/02 05:50:52;;;;;;;35.15;16.58;;;;;;;2.78;66.95;95005.50;5032236;28;20374;-73
2021/01/02 05:53:22;;;;;;;34.25;15.50;;;;;;;2.85;66.27;95005.88;5030818;28;20184;-69
2021/01/02 05:55:56;;;;;;;39.88;15.43;;;;;;;2.89;66.08;95000.81;5032371;28;20182;-69
2021/01/02 05:58:21;;;;;;;31.23;15.10;;;;;;;2.82;66.63;95017.03;5032028;28;20176;-70
2021/01/02 06:00:47;;;;;;;29.20;12.90;;;;;;;2.79;66.58;95017.59;5031017;28;20635;-70
2021/01/02 06:03:25;;;;;;;28.67;12.90;;;;;;;2.82;66.65;95017.03;5031785;28;20206;-71
2021/01/02 06:05:58;;;;;;;31.55;14.63;;;;;;;2.63;66.84;95018.94;5032162;28;20551;-72
2021/01/02 06:08:41;;;;;;;29.95;11.27;;;;;;;2.57;67.44;95025.38;5031694;28;20185;-71
2021/01/02 06:11:09;;;;;;;24.23;12.15;;;;;;;2.51;67.12;95027.31;5031542;28;20255;-73
2021/01/02 06:13:36;;;;;;;30.23;12.05;;;;;;;2.78;65.68;95029.22;5030707;28;20215;-76
2021/01/02 06:16:03;;;;;;;26.48;12.10;;;;;;;2.60;66.51;95030.09;5031696;28;20176;-71
2021/01/02 06:18:29;;;;;;;21.27;10.75;;;;;;;2.79;66.49;95030.00;5031842;28;20180;-74
2021/01/02 06:20:56;;;;;;;18.90;10.23;;;;;;;2.75;66.21;95029.81;5031755;28;20184;-73
2021/01/02 06:23:23;;;;;;;19.15;10.48;;;;;;;2.70;66.92;95037.03;5030527;28;20176;-70
2021/01/02 06:25:48;;;;;;;22.73;9.73;;;;;;;2.91;66.11;95032.94;5031780;28;20208;-71
2021/01/02 06:28:15;;;;;;;16.67;8.90;;;;;;;2.90;66.17;95036.66;5031374;28;20657;-71
2021/01/02 06:30:42;;;;;;;21.02;9.02;;;;;;;2.79;66.70;95038.69;5031425;28;20571;-72
2021/01/02 06:33:17;;;;;;;18.67;8.75;;;;;;;2.69;67.24;95041.50;5031501;28;20252;-70
2021/01/02 06:35:43;;;;;;;17.55;8.65;;;;;;;2.68;67.75;95041.81;5031664;28;20168;-70
2021/01/02 06:38:12;;;;;;;15.03;7.50;;;;;;;2.84;65.81;95043.09;5031592;28;20223;-70
2021/01/02 06:40:42;;;;;;;15.77;8.15;;;;;;;2.85;65.75;95039.38;5031729;28;20180;-73
2021/01/02 06:43:11;;;;;;;16.67;8.70;;;;;;;2.74;66.72;95032.72;5031248;28;20184;-72
2021/01/02 06:45:36;;;;;;;17.55;8.68;;;;;;;2.89;65.29;95040.38;5031557;28;20267;-70
2021/01/02 06:48:20;;;;;;;14.20;8.40;;;;;;;2.87;66.68;95048.59;5031323;28;20262;-72
2021/01/02 06:50:51;;;;;;;20.73;8.18;;;;;;;3.00;65.33;95049.66;5031361;28;20706;-70
2021/01/02 06:53:23;;;;;;;24.30;9.82;;;;;;;2.54;66.04;95052.34;5030787;28;20203;-73
2021/01/02 06:56:13;;;;;;;20.77;9.13;;;;;;;2.09;67.78;95042.25;5024086;28;20235;-69
2021/01/02 06:58:44;;;;;;;25.63;12.13;;;;;;;2.02;69.03;95046.28;5044131;28;20187;-71
2021/01/02 07:01:15;;;;;;;20.17;10.15;;;;;;;2.31;68.75;95049.53;5030849;28;20176;-72
2021/01/02 07:03:44;;;;;;;22.38;10.27;;;;;;;2.60;68.01;95056.44;5030919;28;20164;-71
2021/01/02 07:06:22;;;;;;;20.75;10.10;;;;;;;2.67;67.29;95058.72;5030737;28;20210;-72
2021/01/02 07:09:09;;;;;;;23.48;10.77;;;;;;;2.89;66.33;95062.25;5031099;28;20172;-72
2021/01/02 07:11:44;;;;;;;12.93;6.15;;;;;;;2.88;65.02;95073.09;5031044;28;20219;-70
2021/01/02 07:14:09;;;;;;;20.88;8.95;;;;;;;2.82;66.19;95066.34;5031382;28;20595;-72
2021/01/02 07:16:38;;;;;;;19.03;7.63;;;;;;;3.08;64.51;95066.66;5031037;28;20183;-70
2021/01/02 07:19:04;;;;;;;12.52;5.68;;;;;;;3.07;63.99;95065.09;5031132;28;20223;-69
2021/01/02 07:21:37;;;;;;;11.57;5.65;;;;;;;3.18;63.08;95069.09;5031111;28;20185;-69
2021/01/02 07:24:25;;;;;;;9.77;5.82;;;;;;;3.40;62.54;95063.13;5034241;28;20288;-71
2021/01/02 07:26:56;;;;;;;10.27;5.70;;;;;;;3.41;63.27;95068.13;5034985;28;20179;-74
2021/01/02 07:29:22;;;;;;;17.42;5.50;;;;;;;3.45;62.44;95074.38;5034869;28;20243;-71
2021/01/02 07:31:48;;;;;;;10.17;5.33;;;;;;;3.48;61.30;95070.38;5034865;28;20262;-74
2021/01/02 07:34:20;;;;;;;10.27;5.53;;;;;;;3.52;61.48;95076.63;5035194;28;20643;-70
2021/01/02 07:36:46;;;;;;;10.43;5.38;;;;;;;3.40;61.93;95068.41;5034517;28;20601;-70
2021/01/02 07:39:12;;;;;;;6.27;4.43;;;;;;;3.62;61.24;95070.34;5034732;28;20238;-74
2021/01/02 07:41:38;;;;;;;12.50;6.10;;;;;;;3.51;61.75;95075.06;5034492;28;20189;-71
2021/01/02 07:44:04;;;;;;;9.55;4.78;;;;;;;3.72;61.14;95084.13;5034592;28;20199;-72
2021/01/02 07:46:31;;;;;;;8.33;5.50;;;;;;;3.79;60.99;95075.03;5034096;28;20180;-70
2021/01/02 07:48:57;;;;;;;10.65;5.88;;;;;;;3.91;60.74;95067.34;5034169;28;20247;-70
2021/01/02 07:51:22;;;;;;;11.27;6.63;;;;;;;3.97;60.55;95074.88;5033848;28;20753;-71
2021/01/02 07:53:53;;;;;;;12.60;6.37;;;;;;;4.04;60.77;95071.84;5032612;28;20189;-71
2021/01/02 07:56:37;;;;;;;10.73;6.20;;;;;;;4.13;60.34;95070.03;5034255;28;20256;-69
2021/01/02 07:59:37;;;;;;;10.80;6.47;;;;;;;3.97;61.43;95068.81;5033381;28;20183;-72
2021/01/02 08:02:07;;;;;;;15.25;7.70;;;;;;;3.97;62.17;95072.22;5031023;28;20238;-72
2021/01/02 08:04:33;;;;;;;11.85;6.10;;;;;;;4.11;60.84;95076.72;5031845;28;20226;-74
2021/01/02 08:07:04;;;;;;;11.27;6.70;;;;;;;4.24;60.78;95075.88;5031308;28;20602;-71
2021/01/02 08:09:30;;;;;;;13.65;6.65;;;;;;;4.16;60.45;95061.50;5031349;28;20177;-71
2021/01/02 08:12:06;;;;;;;13.82;6.88;;;;;;;4.42;60.37;95071.47;5031624;28;20185;-72
2021/01/02 08:14:32;;;;;;;12.70;5.85;;;;;;;4.47;60.28;95077.44;5031591;28;20263;-70
2021/01/02 08:17:00;;;;;;;9.07;5.93;;;;;;;4.67;59.36;95072.75;5031365;28;20705;-70
2021/01/02 08:19:53;;;;;;;11.77;6.15;;;;;;;4.62;59.51;95076.28;5015157;28;20180;-70
2021/01/02 08:22:32;;;;;;;13.60;5.63;;;;;;;4.58;59.51;95075.31;5027882;28;20218;-71
2021/01/02 08:25:01;;;;;;;10.75;6.15;;;;;;;4.57;60.00;95073.00;5029966;28;20678;-70
2021/01/02 08:27:28;;;;;;;12.95;6.88;;;;;;;4.76;59.15;95078.84;5014816;28;20226;-70
2021/01/02 08:29:54;;;;;;;14.30;6.82;;;;;;;4.61;59.86;95064.16;5031073;28;20672;-71
2021/01/02 08:32:21;;;;;;;11.60;6.97;;;;;;;4.43;60.95;95065.91;5031186;28;20184;-71
2021/01/02 08:34:47;;;;;;;13.25;6.93;;;;;;;4.59;60.63;95058.38;5028095;28;20181;-73
2021/01/02 08:37:14;;;;;;;13.10;6.70;;;;;;;4.63;60.46;95064.63;5032147;28;20180;-72
2021/01/02 08:39:40;;;;;;;13.90;7.35;;;;;;;4.69;59.87;95055.47;5033717;28;20219;-72
2021/01/02 08:42:06;;;;;;;15.50;7.07;;;;;;;4.86;59.38;95054.00;5033486;28;20264;-71
2021/01/02 08:44:35;;;;;;;13.83;7.30;;;;;;;4.62;61.13;95060.41;5033720;28;20176;-70
2021/01/02 08:47:04;;;;;;;11.35;6.35;;;;;;;4.97;60.42;95065.88;5048804;28;20179;-70
2021/01/02 08:49:37;;;;;;;12.30;5.90;;;;;;;5.15;60.16;95050.84;5048640;28;20315;-71
2021/01/02 08:52:26;;;;;;;11.27;6.63;;;;;;;5.26;59.09;95049.50;5048399;28;20212;-73
2021/01/02 08:54:53;;;;;;;11.50;6.30;;;;;;;5.34;58.35;95048.75;5033479;28;20185;-75
2021/01/02 08:57:26;;;;;;;9.18;5.72;;;;;;;5.25;59.31;95038.13;5033186;28;20178;-71
2021/01/02 08:59:52;;;;;;;12.25;5.70;;;;;;;5.64;58.18;95044.44;5048120;28;20196;-71
2021/01/02 09:02:18;;;;;;;11.27;5.43;;;;;;;5.69;57.71;95043.53;5031767;28;20177;-72
2021/01/02 09:05:01;;;;;;;10.83;6.50;;;;;;;5.78;57.71;95046.94;5048721;28;20176;-75
2021/01/02 09:07:27;;;;;;;17.10;6.37;;;;;;;5.88;57.07;95045.88;5032938;28;20172;-73
2021/01/02 09:10:15;;;;;;;14.07;7.10;;;;;;;6.20;57.02;95042.03;5033173;28;20459;-73
2021/01/02 09:12:42;;;;;;;11.17;5.77;;;;;;;6.54;55.52;95041.22;5033298;28;20211;-71
2021/01/02 09:15:08;;;;;;;14.27;7.03;;;;;;;6.94;54.54;95044.38;5031550;28;20461;-74
2021/01/02 09:17:46;;;;;;;11.13;6.87;;;;;;;7.15;54.46;95044.47;5032936;28;20442;-70
2021/01/02 09:20:15;;;;;;;21.83;11.17;;;;;;;7.25;55.01;95044.13;5032850;28;20477;-70
2021/01/02 09:23:01;;;;;;;24.33;11.67;;;;;;;7.30;54.46;95035.19;5032793;28;20451;-71
2021/01/02 09:25:30;;;;;;;21.23;10.90;;;;;;;7.59;53.29;95032.53;5032494;28;20447;-69
2021/01/02 09:27:56;;;;;;;11.60;6.33;;;;;;;7.73;52.63;95045.56;5032814;28;20466;-70
2021/01/02 09:30:22;;;;;;;10.43;5.33;;;;;;;7.90;50.25;95036.72;5032874;28;20450;-70
2021/01/02 09:32:48;;;;;;;10.67;5.10;;;;;;;8.40;49.56;95039.31;5032701;28;20168;-71
2021/01/02 09:35:13;;;;;;;9.17;4.90;;;;;;;8.47;48.21;95028.13;5032491;28;20603;-71
2021/01/02 09:37:41;;;;;;;8.07;4.83;;;;;;;8.67;46.84;95040.63;5032471;28;20187;-71
2021/01/02 09:40:15;;;;;;;7.10;4.43;;;;;;;8.90;47.25;95032.25;5047766;28;20199;-71
2021/01/02 09:42:41;;;;;;;10.70;5.47;;;;;;;9.17;45.96;95018.31;5032748;28;20519;-74
2021/01/02 09:45:07;;;;;;;12.50;4.60;;;;;;;9.16;45.88;95024.75;5032991;28;20952;-76
2021/01/02 09:47:32;;;;;;;16.53;8.87;;;;;;;9.10;47.20;95026.06;5031459;28;20184;-71
2021/01/02 09:49:58;;;;;;;13.00;5.83;;;;;;;9.62;45.15;95019.31;5032276;28;20450;-72
2021/01/02 09:52:23;;;;;;;16.33;8.07;;;;;;;9.79;44.55;95011.81;5031958;28;20230;-71
2021/01/02 09:54:49;;;;;;;18.13;8.70;;;;;;;9.79;45.92;95011.06;5032208;28;20172;-72
2021/01/02 09:57:14;;;;;;;17.67;10.10;;;;;;;9.75;46.26;95010.94;5031984;28;20176;-72
2021/01/02 09:59:42;;;;;;;17.70;9.60;;;;;;;9.58;46.17;95003.19;5032238;28;20176;-72
2021/01/02 10:02:08;;;;;;;19.23;10.33;;;;;;;9.39;46.48;95011.00;5033139;28;20164;-72
2021/01/02 10:04:34;;;;;;;18.67;10.00;;;;;;;9.47;46.80;95007.41;5032117;28;20419;-72
2021/01/02 10:06:59;;;;;;;19.83;8.83;;;;;;;9.22;46.77;94991.44;5031794;28;20172;-72
2021/01/02 10:09:25;;;;;;;20.10;8.53;;;;;;;9.74;46.48;94987.28;5030738;28;20196;-72
2021/01/02 10:11:50;;;;;;;15.03;6.87;;;;;;;9.97;44.86;94990.22;5032004;28;20196;-72
2021/01/02 10:14:15;;;;;;;8.00;5.60;;;;;;;10.25;43.67;94980.38;5031787;28;20214;-74
2021/01/02 10:16:41;;;;;;;14.63;6.27;;;;;;;10.69;43.13;94977.72;5031930;28;20251;-72
2021/01/02 10:19:08;;;;;;;10.27;6.00;;;;;;;10.93;42.30;94982.13;5031963;28;20183;-72
2021/01/02 10:21:34;;;;;;;11.33;5.80;;;;;;;10.61;42.17;94976.00;5031756;28;20200;-72
2021/01/02 10:23:59;;;;;;;11.77;5.30;;;;;;;10.09;43.68;94976.84;5031036;28;20470;-74
2021/01/02 10:26:25;;;;;;;8.73;5.40;;;;;;;9.94;42.94;94972.25;5031940;28;20737;-71
2021/01/02 10:28:50;;;;;;;8.77;5.27;;;;;;;9.52;45.25;94970.66;5031345;28;20238;-72
2021/01/02 10:31:22;;;;;;;11.90;5.33;;;;;;;9.27;45.28;94964.59;5031621;28;20200;-71
2021/01/02 10:33:48;;;;;;;8.27;4.70;;;;;;;8.87;46.81;94955.69;5031573;28;20654;-72
2021/01/02 10:36:13;;;;;;;8.23;4.80;;;;;;;8.90;46.48;94963.78;5032267;28;20480;-71
2021/01/02 10:38:39;;;;;;;9.40;5.43;;;;;;;8.95;46.45;94957.47;5031536;28;20172;-72
2021/01/02 10:41:04;;;;;;;7.27;4.20;;;;;;;8.53;47.51;94962.16;5031354;28;20195;-74
2021/01/02 10:43:30;;;;;;;12.17;5.73;;;;;;;8.68;47.90;94950.91;5031721;28;20226;-71
2021/01/02 10:45:55;;;;;;;9.30;5.10;;;;;;;8.81;47.41;94946.34;5031269;28;20643;-72
2021/01/02 10:48:21;;;;;;;7.60;5.07;;;;;;;8.97;46.85;94944.59;5031652;28;20191;-72
2021/01/02 10:50:46;;;;;;;8.53;4.80;;;;;;;8.91;47.26;94941.38;5032132;28;20671;-75
2021/01/02 10:53:12;;;;;;;12.77;5.73;;;;;;;8.86;46.71;94946.13;5031374;28;20179;-77
2021/01/02 10:55:37;;;;;;;11.47;6.23;;;;;;;8.85;47.54;94933.94;5031320;28;20176;-72
2021/01/02 10:58:03;;;;;;;9.27;5.53;;;;;;;8.91;47.62;94924.63;5032963;28;20219;-72
2021/01/02 11:00:28;;;;;;;9.97;5.40;;;;;;;8.88;47.04;94925.31;5035727;28;20302;-72
2021/01/02 11:02:54;;;;;;;13.03;5.57;;;;;;;8.82;47.30;94922.06;5035295;28;20180;-72
2021/01/02 11:05:19;;;;;;;9.53;5.60;;;;;;;8.78;47.01;94921.19;5035397;28;20164;-73
2021/01/02 11:07:45;;;;;;;10.37;5.67;;;;;;;8.66;47.18;94908.63;5036086;28;20180;-73
2021/01/02 11:10:12;;;;;;;11.33;6.00;;;;;;;8.76;47.69;94919.97;5035322;28;20184;-72
2021/01/02 11:12:37;;;;;;;15.87;6.43;;;;;;;8.62;47.46;94906.97;5035219;28;20200;-77
2021/01/02 11:15:06;;;;;;;9.73;5.70;;;;;;;8.74;46.89;94902.41;5035541;28;20853;-75
2021/01/02 11:17:31;;;;;;;15.50;5.53;;;;;;;8.58;48.48;94914.06;5035058;28;20191;-73
2021/01/02 11:19:57;;;;;;;11.87;6.10;;;;;;;8.76;47.79;94915.41;5035266;28;20418;-73
2021/01/02 11:22:22;;;;;;;10.77;5.37;;;;;;;8.73;49.01;94906.19;5035015;28;20219;-73
2021/01/02 11:24:48;;;;;;;11.40;6.70;;;;;;;8.64;48.30;94902.09;5037563;28;20183;-73
2021/01/02 11:27:14;;;;;;;15.27;8.37;;;;;;;10.78;78.31;94906.22;5035161;28;20165;-76
2021/01/02 11:29:40;;;;;;;13.37;7.47;;;;;;;11.44;70.40;94906.53;5034762;28;20298;-77
2021/01/02 11:32:07;;;;;;;17.03;7.70;;;;;;;10.45;47.70;94897.78;5035033;28;20887;-77
2021/01/02 11:34:33;;;;;;;15.50;7.87;;;;;;;9.68;48.27;94903.31;5034744;28;20169;-76
2021/01/02 11:36:59;;;;;;;11.43;7.47;;;;;;;9.46;48.73;94896.59;5034955;28;20421;-77
2021/01/02 11:39:25;;;;;;;15.30;7.50;;;;;;;9.22;49.16;94892.88;5034759;28;20278;-76
2021/01/02 11:41:51;;;;;;;13.27;7.00;;;;;;;9.02;49.62;94883.13;5036429;28;20823;-77